Time;durP1;ratioP1;P1;durP2;ratioP2;P2;SDS_P1;SDS_P2;PMS_P1;PMS_P2;Temp;Humidity;BMP_temperature;BMP_pressure;BME280_temperature;BME280_humidity;BME280_pressure;Samples;Min_cycle;Max_cycle;Signal;HPM_P1;HPM_P2
2022/01/14 00:01:46;;;;;;;11.10;6.10;;;;;;;5.56;100.00;103463.94;4996712;28;20649;-80
2022/01/14 00:04:12;;;;;;;16.80;5.90;;;;;;;5.52;100.00;103430.47;4998720;28;20550;-81
2022/01/14 00:06:37;;;;;;;17.83;6.57;;;;;;;5.52;100.00;103455.28;4996140;28;20502;-81
2022/01/14 00:09:06;;;;;;;13.63;6.00;;;;;;;5.78;100.00;103496.13;4998711;28;20814;-82
2022/01/14 00:11:55;;;;;;;14.60;6.00;;;;;;;6.02;100.00;103549.66;4999960;28;20668;-82
2022/01/14 00:14:40;;;;;;;;;;;;;;;;;;;;;
2022/01/14 00:17:12;;;;;;;21.03;7.17;;;;;;;6.15;100.00;103536.34;4993507;28;20487;-82
2022/01/14 00:19:38;;;;;;;18.17;6.90;;;;;;;5.89;100.00;103512.25;4997899;28;20486;-82
2022/01/14 00:22:09;;;;;;;13.00;7.10;;;;;;;5.84;100.00;103482.44;4999995;28;20594;-81
2022/01/14 00:35:17;;;;;;;15.70;7.30;;;;;;;6.10;100.00;103520.69;4998523;28;20444;-81
2022/01/14 00:37:42;;;;;;;16.70;7.53;;;;;;;5.96;100.00;103502.09;5000660;28;20471;-81
2022/01/14 00:40:08;;;;;;;13.40;6.47;;;;;;;5.91;100.00;103458.91;4998739;28;20196;-82
2022/01/14 00:42:34;;;;;;;13.93;7.57;;;;;;;6.17;100.00;103534.44;4999246;28;20201;-79
2022/01/14 00:44:59;;;;;;;21.30;7.47;;;;;;;6.03;100.00;103514.03;4993132;28;20440;-81
2022/01/14 00:47:25;;;;;;;13.00;6.03;;;;;;;5.54;100.00;103426.75;5000817;28;20217;-82
2022/01/14 00:49:50;;;;;;;17.23;7.07;;;;;;;6.07;100.00;103520.00;5000066;28;20685;-81
2022/01/14 00:52:15;;;;;;;18.23;6.70;;;;;;;5.38;100.00;103407.41;4998145;28;20185;-81
2022/01/14 00:54:41;;;;;;;18.03;5.80;;;;;;;6.14;100.00;103520.47;4997691;28;20237;-82
2022/01/14 00:59:34;;;;;;;12.70;5.83;;;;;;;4.97;100.00;103317.88;4996165;28;20209;-81
2022/01/14 01:02:01;;;;;;;16.60;5.93;;;;;;;6.18;100.00;103513.97;4995317;28;21160;-81
2022/01/14 01:04:32;;;;;;;10.00;6.20;;;;;;;5.86;100.00;103453.88;5001366;28;20209;-81
2022/01/14 01:07:00;;;;;;;17.23;5.90;;;;;;;5.86;100.00;103451.22;4994517;28;20460;-80
2022/01/14 01:09:26;;;;;;;13.53;6.23;;;;;;;6.18;100.00;103500.63;4997160;28;20448;-79
2022/01/14 01:12:25;;;;;;;16.90;6.30;;;;;;;5.93;100.00;103473.00;4998609;28;20437;-80
2022/01/14 01:15:05;;;;;;;13.40;6.23;;;;;;;5.57;100.00;103391.06;4990711;28;20932;-81
2022/01/14 01:17:31;;;;;;;13.93;6.50;;;;;;;6.11;100.00;103506.38;4996624;28;20477;-81
2022/01/14 01:19:56;;;;;;;18.70;6.40;;;;;;;6.02;100.00;103475.03;4994721;28;20447;-79
2022/01/14 01:22:21;;;;;;;9.63;5.97;;;;;;;6.22;100.00;103503.00;4993032;28;20205;-81
2022/01/14 01:24:47;;;;;;;14.70;6.43;;;;;;;5.53;100.00;103392.25;4998717;28;20666;-80
2022/01/14 01:27:14;;;;;;;19.20;6.80;;;;;;;5.86;100.00;103453.03;4997636;28;20209;-79
2022/01/14 01:32:06;;;;;;;18.00;7.30;;;;;;;5.92;100.00;103473.91;4990324;28;20961;-79
2022/01/14 01:34:32;;;;;;;20.27;6.40;;;;;;;6.06;100.00;103500.50;4996422;28;20193;-79
2022/01/14 01:36:58;;;;;;;17.30;6.57;;;;;;;6.08;100.00;103495.94;4997548;28;20968;-79
2022/01/14 01:39:28;;;;;;;21.27;7.67;;;;;;;6.19;100.00;103503.22;5000023;28;20236;-80
2022/01/14 01:41:56;;;;;;;11.47;7.30;;;;;;;5.85;100.00;103446.00;5012328;28;21031;-79
2022/01/14 01:44:24;;;;;;;18.17;7.63;;;;;;;6.18;100.00;103487.31;5009452;28;20451;-79
2022/01/14 01:46:50;;;;;;;13.70;7.43;;;;;;;6.02;100.00;103463.53;4995787;28;20494;-78
2022/01/14 01:49:18;;;;;;;14.10;7.20;;;;;;;5.89;100.00;103444.81;4996205;28;20474;-79
2022/01/14 01:51:45;;;;;;;17.03;7.30;;;;;;;5.94;100.00;103444.56;4992508;28;20824;-79
2022/01/14 01:54:10;;;;;;;13.93;8.20;;;;;;;5.81;100.00;103429.34;4995840;28;21031;-81
2022/01/14 01:56:36;;;;;;;12.77;8.10;;;;;;;5.46;100.00;103373.16;4994318;28;20529;-79
2022/01/14 01:59:02;;;;;;;16.90;7.70;;;;;;;6.17;100.00;103481.13;4994152;28;20189;-80
2022/01/14 02:01:28;;;;;;;15.23;7.83;;;;;;;5.65;100.00;103405.56;4994324;28;20209;-79
2022/01/14 02:03:54;;;;;;;17.63;7.67;;;;;;;6.19;100.00;103484.56;4995490;28;20512;-80
2022/01/14 02:06:21;;;;;;;18.77;8.17;;;;;;;6.26;100.00;103482.31;4992738;28;20637;-78
2022/01/14 02:08:47;;;;;;;23.23;8.53;;;;;;;6.23;100.00;103479.88;5008986;28;20448;-80
2022/01/14 02:11:13;;;;;;;22.70;9.27;;;;;;;5.72;100.00;103419.31;4996168;28;20440;-80
2022/01/14 02:13:40;;;;;;;18.23;7.73;;;;;;;6.06;100.00;103467.69;4994837;28;20196;-80
2022/01/14 02:18:59;;;;;;;12.23;8.20;;;;;;;6.17;100.00;103454.47;4996501;28;20459;-80
2022/01/14 02:26:50;;;;;;;16.70;7.40;;;;;;;6.18;100.00;103461.50;4994835;28;20873;-79
2022/01/14 02:29:16;;;;;;;21.90;9.03;;;;;;;4.74;100.00;103252.91;4997699;28;20585;-79
2022/01/14 02:31:42;;;;;;;20.53;7.80;;;;;;;5.39;100.00;103346.09;4993608;28;20476;-79
2022/01/14 02:34:10;;;;;;;17.33;8.23;;;;;;;5.99;100.00;103445.06;4997536;28;20452;-80
2022/01/14 02:36:36;;;;;;;20.27;8.43;;;;;;;5.47;100.00;103382.00;4996403;28;20555;-80
2022/01/14 02:39:01;;;;;;;16.77;8.47;;;;;;;5.61;100.00;103381.91;4999891;28;20583;-81
2022/01/14 02:41:28;;;;;;;18.43;8.67;;;;;;;5.12;100.00;103308.03;4993627;28;20209;-79
2022/01/14 02:43:53;;;;;;;19.90;8.80;;;;;;;6.08;100.00;103476.44;5000605;28;20193;-80
2022/01/14 02:46:19;;;;;;;20.23;8.93;;;;;;;5.83;100.00;103426.59;4995333;28;20486;-80
2022/01/14 02:48:44;;;;;;;13.20;7.60;;;;;;;5.97;100.00;103442.53;4999728;28;20284;-79
2022/01/14 02:51:14;;;;;;;19.40;8.93;;;;;;;4.08;100.00;103150.97;4995993;28;20200;-79
2022/01/14 02:56:09;;;;;;;16.50;8.47;;;;;;;6.09;100.00;103460.34;4997815;28;20475;-80
2022/01/14 02:58:37;;;;;;;22.40;9.00;;;;;;;5.35;100.00;103359.72;4993104;28;20467;-79
2022/01/14 03:01:08;;;;;;;23.80;9.60;;;;;;;5.50;100.00;103356.03;4996305;28;20624;-80
2022/01/14 03:03:34;;;;;;;19.40;8.80;;;;;;;5.30;100.00;103330.75;4998789;28;20463;-79
2022/01/14 03:06:01;;;;;;;16.07;7.93;;;;;;;6.01;100.00;103467.13;4995709;28;20467;-80
2022/01/14 03:08:26;;;;;;;19.83;8.60;;;;;;;6.13;100.00;103447.63;4995314;28;20535;-80
2022/01/14 03:11:15;;;;;;;22.20;9.97;;;;;;;6.07;100.00;103458.72;4992202;28;20787;-79
2022/01/14 03:13:40;;;;;;;24.20;8.60;;;;;;;5.96;100.00;103446.16;4994859;28;20254;-79
2022/01/14 03:16:06;;;;;;;17.10;9.80;;;;;;;5.99;100.00;103458.38;5002234;23;20613;-77
2022/01/14 03:18:43;;;;;;;20.37;8.10;;;;;;;6.17;100.00;103446.50;4938108;28;20215;-76
2022/01/14 03:21:10;;;;;;;20.47;9.97;;;;;;;5.92;100.00;103407.31;4940714;28;20183;-76
2022/01/14 03:23:49;;;;;;;18.10;8.57;;;;;;;5.95;100.00;103444.44;4941005;28;20454;-76
2022/01/14 03:26:17;;;;;;;21.50;10.20;;;;;;;5.73;100.00;103409.53;4940596;28;20545;-75
2022/01/14 03:28:43;;;;;;;16.77;8.70;;;;;;;5.42;100.00;103364.53;4936980;28;21059;-76
2022/01/14 03:31:09;;;;;;;18.13;9.07;;;;;;;5.95;100.00;103448.91;4945155;28;20449;-76
2022/01/14 03:33:35;;;;;;;18.50;9.40;;;;;;;6.13;100.00;103446.78;4944993;28;20194;-76
2022/01/14 03:36:01;;;;;;;17.87;9.33;;;;;;;5.48;100.00;103362.41;4940559;28;20446;-76
2022/01/14 03:38:27;;;;;;;23.13;10.63;;;;;;;5.27;100.00;103330.97;4948659;28;20955;-76
2022/01/14 03:40:52;;;;;;;16.20;8.50;;;;;;;5.31;100.00;103316.50;4949376;28;20558;-77
2022/01/14 03:43:18;;;;;;;22.63;9.20;;;;;;;5.68;100.00;103380.56;4952855;28;20203;-77
2022/01/14 03:45:44;;;;;;;19.47;10.70;;;;;;;5.95;100.00;103407.13;4948031;28;20656;-77
2022/01/14 03:48:09;;;;;;;20.90;9.23;;;;;;;5.92;100.00;103388.66;4949370;28;20735;-76
2022/01/14 03:50:36;;;;;;;13.63;7.77;;;;;;;5.77;100.00;103401.22;4947255;28;20443;-76
2022/01/14 03:53:02;;;;;;;17.90;8.67;;;;;;;5.63;100.00;103338.25;4948828;28;20423;-75
2022/01/14 03:55:27;;;;;;;15.57;9.17;;;;;;;5.54;100.00;103300.78;4949488;28;20443;-76
2022/01/14 03:57:53;;;;;;;17.40;9.40;;;;;;;5.57;100.00;103314.72;4946965;28;20465;-76
2022/01/14 04:00:19;;;;;;;23.03;9.73;;;;;;;6.16;100.00;103395.94;4946395;28;20191;-77
2022/01/14 04:02:46;;;;;;;17.47;9.23;;;;;;;5.50;100.00;103297.47;4947131;28;20328;-77
2022/01/14 04:05:11;;;;;;;22.80;10.10;;;;;;;6.07;100.00;103376.97;4946701;28;20446;-77
2022/01/14 04:07:37;;;;;;;18.47;9.90;;;;;;;5.65;100.00;103299.06;4946496;28;20466;-76
2022/01/14 04:10:04;;;;;;;16.70;8.47;;;;;;;5.32;100.00;103242.81;4953905;28;20194;-76
2022/01/14 04:12:58;;;;;;;20.27;9.73;;;;;;;6.07;100.00;103378.78;4964069;28;20261;-76
2022/01/14 04:15:37;;;;;;;17.17;8.70;;;;;;;5.98;100.00;103337.66;4947382;28;20434;-77
2022/01/14 04:18:04;;;;;;;17.87;8.90;;;;;;;6.03;100.00;103364.84;4947063;28;20485;-76
2022/01/14 04:20:29;;;;;;;22.83;8.77;;;;;;;6.21;100.00;103365.34;4948907;28;20546;-76
2022/01/14 04:22:55;;;;;;;17.67;8.53;;;;;;;6.11;100.00;103369.63;4948675;28;20599;-76
2022/01/14 04:25:21;;;;;;;13.60;7.30;;;;;;;5.44;100.00;103255.31;4944459;28;20491;-76
2022/01/14 04:27:47;;;;;;;16.00;8.20;;;;;;;6.01;100.00;103355.25;4946636;28;20761;-76
2022/01/14 04:30:13;;;;;;;19.17;8.63;;;;;;;5.97;100.00;103351.94;4948901;28;20453;-75
2022/01/14 04:32:39;;;;;;;22.57;8.00;;;;;;;5.80;100.00;103322.94;4950587;28;20489;-76
2022/01/14 04:35:05;;;;;;;16.60;7.27;;;;;;;4.25;100.00;103075.47;4948790;28;20206;-76
2022/01/14 04:37:30;;;;;;;18.47;8.40;;;;;;;5.50;100.00;103265.53;4946812;28;20466;-77
2022/01/14 04:39:56;;;;;;;19.90;8.73;;;;;;;5.57;100.00;103280.09;4947934;28;20202;-76
2022/01/14 04:42:22;;;;;;;14.60;7.77;;;;;;;6.00;100.00;103337.56;4945659;28;20253;-78
2022/01/14 04:44:51;;;;;;;16.37;8.53;;;;;;;5.85;100.00;103326.13;4948494;28;20253;-76
2022/01/14 04:47:29;;;;;;;16.77;7.90;;;;;;;5.80;100.00;103302.47;4943854;28;20546;-76
2022/01/14 04:49:54;;;;;;;14.43;7.50;;;;;;;5.41;100.00;103237.75;4947419;28;20442;-76
2022/01/14 04:52:20;;;;;;;15.23;7.17;;;;;;;5.85;100.00;103313.66;4948787;28;20489;-76
2022/01/14 04:54:45;;;;;;;16.83;8.40;;;;;;;5.56;100.00;103240.28;4948586;28;20190;-76
2022/01/14 04:57:11;;;;;;;16.13;7.87;;;;;;;5.36;100.00;103196.44;4945791;28;20310;-77
2022/01/14 04:59:36;;;;;;;16.30;7.90;;;;;;;5.92;100.00;103308.75;4947196;28;20187;-76
2022/01/14 05:02:02;;;;;;;22.10;8.40;;;;;;;5.24;100.00;103208.78;4945939;28;20207;-78
2022/01/14 05:04:28;;;;;;;27.67;8.50;;;;;;;5.87;100.00;103300.22;4949542;28;20199;-76
2022/01/14 05:06:59;;;;;;;13.20;8.90;;;;;;;6.01;100.00;103360.56;4947133;28;20731;-76
2022/01/14 05:09:31;;;;;;;17.63;7.83;;;;;;;5.71;100.00;103278.31;4948217;28;20183;-77
2022/01/14 05:12:05;;;;;;;17.00;8.50;;;;;;;6.27;100.00;103348.91;4944773;28;20438;-77
2022/01/14 05:14:30;;;;;;;18.13;8.93;;;;;;;5.68;100.00;103286.50;4946933;28;20438;-77
2022/01/14 05:16:55;;;;;;;20.10;9.47;;;;;;;6.17;100.00;103368.34;4947687;28;20478;-76
2022/01/14 05:19:21;;;;;;;21.30;9.93;;;;;;;5.91;100.00;103308.88;4949462;28;20207;-75
2022/01/14 05:21:46;;;;;;;19.00;9.47;;;;;;;5.58;100.00;103254.31;4945633;28;20207;-76
2022/01/14 05:24:12;;;;;;;20.67;11.00;;;;;;;5.92;100.00;103316.75;4948043;28;20291;-77
2022/01/14 05:26:37;;;;;;;18.17;9.17;;;;;;;5.75;100.00;103293.09;4944949;28;20294;-75
2022/01/14 05:29:02;;;;;;;22.90;9.53;;;;;;;5.22;100.00;103222.16;4946113;28;20627;-76
2022/01/14 05:31:50;;;;;;;25.20;10.10;;;;;;;6.21;100.00;103365.34;4944095;28;20274;-77
2022/01/14 05:34:16;;;;;;;18.30;9.30;;;;;;;5.76;100.00;103300.16;4953616;28;20187;-77
2022/01/14 05:36:42;;;;;;;20.50;9.53;;;;;;;6.11;100.00;103356.31;4944893;28;20998;-77
2022/01/14 05:39:09;;;;;;;13.80;9.30;;;;;;;5.43;100.00;103253.59;4948317;28;20233;-81
2022/01/14 05:41:35;;;;;;;20.90;9.47;;;;;;;5.64;100.00;103302.69;4947353;28;20450;-78
2022/01/14 05:44:01;;;;;;;18.40;9.87;;;;;;;5.50;100.00;103264.69;4946935;28;20817;-79
2022/01/14 05:46:27;;;;;;;18.00;10.17;;;;;;;5.43;100.00;103251.78;4946661;28;20470;-80
2022/01/14 05:48:52;;;;;;;22.70;10.80;;;;;;;5.96;100.00;103350.25;4945261;28;20578;-79
2022/01/14 05:51:18;;;;;;;12.93;9.03;;;;;;;5.79;100.00;103318.56;4945382;28;20194;-79
2022/01/14 05:53:43;;;;;;;21.97;10.30;;;;;;;5.48;100.00;103275.41;4946526;28;20218;-82
2022/01/14 05:56:09;;;;;;;15.30;9.73;;;;;;;5.96;100.00;103349.38;4946563;28;20198;-79
2022/01/14 05:58:34;;;;;;;16.20;9.93;;;;;;;4.64;100.00;103132.22;4945029;28;20215;-79
2022/01/14 06:01:00;;;;;;;18.23;9.23;;;;;;;6.08;100.00;103348.53;4945031;28;20257;-76
2022/01/14 06:03:25;;;;;;;20.77;9.33;;;;;;;5.38;100.00;103274.34;4939061;28;20218;-77
2022/01/14 06:05:51;;;;;;;20.73;10.20;;;;;;;6.04;100.00;103366.53;4941697;28;20274;-77
2022/01/14 06:08:17;;;;;;;21.13;9.23;;;;;;;5.58;100.00;103272.97;4944652;28;20195;-78
2022/01/14 06:10:42;;;;;;;18.37;9.93;;;;;;;5.39;100.00;103262.75;4934390;28;20446;-75
2022/01/14 06:13:08;;;;;;;15.80;8.97;;;;;;;5.84;100.00;103329.72;4942583;28;20273;-78
2022/01/14 06:15:34;;;;;;;18.30;10.20;;;;;;;5.30;100.00;103244.75;4935148;28;20607;-77
2022/01/14 06:17:59;;;;;;;16.17;9.80;;;;;;;6.03;100.00;103364.00;4925255;28;20218;-76
2022/01/14 06:20:24;;;;;;;21.53;8.63;;;;;;;6.08;100.00;103375.19;4938336;28;20195;-76
2022/01/14 06:22:50;;;;;;;19.73;8.07;;;;;;;5.70;100.00;103311.19;4940692;28;20342;-76
2022/01/14 06:25:15;;;;;;;22.57;8.90;;;;;;;5.65;100.00;103299.06;4924238;28;20186;-77
2022/01/14 06:27:41;;;;;;;16.47;9.23;;;;;;;6.05;100.00;103372.72;4940304;28;20349;-77
2022/01/14 06:30:08;;;;;;;16.03;8.50;;;;;;;6.20;100.00;103376.13;4943772;28;20277;-78
2022/01/14 06:32:41;;;;;;;17.63;7.87;;;;;;;5.76;100.00;103289.50;4942158;28;20190;-77
2022/01/14 06:35:09;;;;;;;16.20;7.90;;;;;;;5.87;100.00;103311.75;4942800;28;20857;-77
2022/01/14 06:37:35;;;;;;;20.60;7.53;;;;;;;6.21;100.00;103356.50;4937511;28;20494;-80
2022/01/14 06:40:00;;;;;;;15.00;7.60;;;;;;;5.83;100.00;103310.25;4940299;28;20481;-81
2022/01/14 06:42:26;;;;;;;22.40;8.57;;;;;;;6.24;100.00;103377.59;4930094;28;21513;-81
2022/01/14 06:44:51;;;;;;;16.00;7.80;;;;;;;5.72;100.00;103278.19;4936684;28;20207;-81
2022/01/14 06:47:16;;;;;;;16.13;8.13;;;;;;;5.87;100.00;103334.84;4939815;28;20210;-80
2022/01/14 06:49:42;;;;;;;16.00;6.93;;;;;;;5.55;100.00;103258.06;4937095;28;20187;-81
2022/01/14 06:52:07;;;;;;;15.50;7.30;;;;;;;6.08;100.00;103360.03;4934621;28;20195;-81
2022/01/14 06:54:33;;;;;;;19.63;7.53;;;;;;;5.45;100.00;103235.72;4942283;28;20210;-80
2022/01/14 06:56:58;;;;;;;22.93;6.00;;;;;;;5.27;100.00;103205.91;4943623;28;20261;-84
2022/01/14 06:59:23;;;;;;;13.83;5.67;;;;;;;6.06;100.00;103327.31;4931209;28;20187;-81
2022/01/14 07:01:49;;;;;;;13.27;4.60;;;;;;;5.71;100.00;103267.66;4934368;28;20214;-80
2022/01/14 07:04:14;;;;;;;17.73;4.67;;;;;;;5.95;100.00;103307.72;4937987;28;20210;-81
2022/01/14 07:06:40;;;;;;;17.97;3.93;;;;;;;5.48;100.00;103227.50;4944658;28;20211;-77
2022/01/14 07:09:05;;;;;;;21.70;3.70;;;;;;;5.74;100.00;103259.44;4933130;28;20187;-77
2022/01/14 07:11:36;;;;;;;11.30;3.73;;;;;;;5.57;100.00;103234.00;4936185;28;20597;-76
2022/01/14 07:14:02;;;;;;;13.10;3.00;;;;;;;6.04;100.00;103326.56;4938109;28;20278;-76
2022/01/14 07:16:28;;;;;;;13.13;3.43;;;;;;;5.47;100.00;103214.28;4943929;28;20481;-76
2022/01/14 07:18:53;;;;;;;15.67;3.67;;;;;;;6.41;100.00;103368.41;4942414;28;20451;-76
2022/01/14 07:21:19;;;;;;;9.60;2.80;;;;;;;5.48;100.00;103230.16;4947982;28;20182;-77
2022/01/14 07:23:44;;;;;;;13.57;3.10;;;;;;;5.89;100.00;103285.84;4941138;28;20195;-77
2022/01/14 07:26:10;;;;;;;10.33;2.60;;;;;;;5.57;100.00;103250.81;4945736;28;20685;-76
2022/01/14 07:28:35;;;;;;;12.60;3.10;;;;;;;5.12;100.00;103190.97;4943017;28;20187;-76
2022/01/14 07:31:00;;;;;;;18.83;3.60;;;;;;;6.00;100.00;103335.75;4938926;28;20632;-76
2022/01/14 07:33:26;;;;;;;7.97;2.60;;;;;;;5.15;100.00;103190.75;4945005;28;20627;-77
2022/01/14 07:35:51;;;;;;;10.13;2.60;;;;;;;5.61;100.00;103262.97;4946313;28;20202;-77
2022/01/14 07:38:16;;;;;;;12.07;2.57;;;;;;;5.64;100.00;103253.91;4942383;28;20271;-77
2022/01/14 07:40:42;;;;;;;14.30;3.23;;;;;;;5.69;100.00;103299.69;4937759;28;20194;-74
2022/01/14 07:43:08;;;;;;;13.63;2.87;;;;;;;6.47;100.00;103389.31;4938340;28;20747;-78
2022/01/14 07:45:33;;;;;;;9.20;2.83;;;;;;;5.86;100.00;103293.19;4944372;28;20438;-77
2022/01/14 07:47:59;;;;;;;16.43;3.10;;;;;;;5.90;100.00;103265.38;4942312;28;20210;-77
2022/01/14 07:50:24;;;;;;;19.97;2.97;;;;;;;5.89;100.00;103279.66;4944662;28;20384;-77
2022/01/14 07:52:49;;;;;;;14.33;3.30;;;;;;;5.91;100.00;103307.06;4944795;28;20648;-76
2022/01/14 07:55:15;;;;;;;13.50;2.70;;;;;;;4.70;100.00;103103.41;4930628;28;20183;-76
2022/01/14 07:57:40;;;;;;;10.43;3.53;;;;;;;6.13;100.00;103334.88;4939153;28;20217;-74
2022/01/14 08:00:07;;;;;;;11.27;2.70;;;;;;;6.27;100.00;103340.06;4939811;28;20679;-76
2022/01/14 08:02:33;;;;;;;10.27;2.60;;;;;;;5.91;100.00;103311.53;4941920;28;20259;-77
2022/01/14 08:04:58;;;;;;;14.67;3.03;;;;;;;6.31;100.00;103347.75;4946709;28;20442;-77
2022/01/14 08:07:28;;;;;;;19.17;3.70;;;;;;;6.30;100.00;103370.03;4945426;28;20470;-76
2022/01/14 08:09:54;;;;;;;13.50;4.10;;;;;;;5.28;100.00;103191.63;4943618;28;20183;-76
2022/01/14 08:12:19;;;;;;;11.77;3.07;;;;;;;6.47;100.00;103419.47;4939804;28;20466;-77
2022/01/14 08:14:47;;;;;;;12.03;2.60;;;;;;;6.26;100.00;103363.22;4942976;28;20195;-78
2022/01/14 08:17:16;;;;;;;13.00;3.00;;;;;;;5.60;100.00;103258.59;4944451;28;20222;-76
2022/01/14 08:19:41;;;;;;;12.77;2.70;;;;;;;6.45;100.00;103407.22;4946029;28;20449;-79
2022/01/14 08:22:07;;;;;;;16.17;3.50;;;;;;;5.57;100.00;103240.16;4943584;28;20450;-79
2022/01/14 08:24:34;;;;;;;13.13;3.20;;;;;;;5.87;100.00;103286.91;4947623;28;20191;-78
2022/01/14 08:27:01;;;;;;;8.80;2.57;;;;;;;6.41;100.00;103392.41;4944847;28;20455;-78
2022/01/14 08:29:28;;;;;;;9.07;2.30;;;;;;;6.08;100.00;103332.56;4942610;28;20454;-79
2022/01/14 08:31:54;;;;;;;9.90;2.60;;;;;;;5.93;100.00;103338.91;4942731;28;20447;-78
2022/01/14 08:34:21;;;;;;;13.20;3.33;;;;;;;5.03;100.00;103195.13;4941985;28;20431;-78
2022/01/14 08:36:47;;;;;;;9.47;3.27;;;;;;;5.89;100.00;103300.97;4936502;28;20546;-78
2022/01/14 08:39:13;;;;;;;11.67;3.03;;;;;;;6.30;100.00;103385.16;4943456;28;20526;-78
2022/01/14 08:41:38;;;;;;;13.37;2.60;;;;;;;6.47;100.00;103398.16;4937524;28;20449;-78
2022/01/14 08:44:04;;;;;;;8.77;2.33;;;;;;;6.30;100.00;103359.34;4933462;28;20443;-77
2022/01/14 08:46:30;;;;;;;12.60;3.00;;;;;;;6.36;100.00;103371.41;4958548;28;20293;-77
2022/01/14 08:48:58;;;;;;;15.70;2.60;;;;;;;6.42;100.00;103389.66;4943593;28;20887;-78
2022/01/14 08:51:24;;;;;;;19.17;2.73;;;;;;;6.52;100.00;103409.34;4939177;28;20191;-77
2022/01/14 08:53:50;;;;;;;14.77;2.97;;;;;;;6.36;100.00;103386.56;4945092;28;20446;-77
2022/01/14 08:56:15;;;;;;;9.90;2.13;;;;;;;6.31;100.00;103365.56;4934998;28;20268;-79
2022/01/14 08:58:40;;;;;;;12.13;2.40;;;;;;;5.88;100.00;103300.13;4945294;28;20195;-77
2022/01/14 09:01:06;;;;;;;12.40;2.50;;;;;;;6.21;100.00;103381.34;4942922;28;20624;-77
2022/01/14 09:03:31;;;;;;;13.00;3.00;;;;;;;5.80;100.00;103304.28;4941591;28;20203;-78
2022/01/14 09:05:57;;;;;;;12.53;2.50;;;;;;;6.55;100.00;103429.63;4941564;28;20274;-77
2022/01/14 09:08:22;;;;;;;10.97;2.50;;;;;;;4.65;100.00;103121.47;4943265;28;20195;-77
2022/01/14 09:10:48;;;;;;;12.00;2.33;;;;;;;6.17;100.00;103363.03;4940716;28;20183;-77
2022/01/14 09:13:13;;;;;;;12.90;2.70;;;;;;;6.60;100.00;103435.47;4941458;28;20202;-77
2022/01/14 09:15:39;;;;;;;12.07;2.43;;;;;;;5.93;100.00;103310.50;4937456;28;20198;-77
2022/01/14 09:18:05;;;;;;;10.93;2.77;;;;;;;6.19;100.00;103369.97;4938207;28;20211;-77
2022/01/14 09:20:31;;;;;;;12.87;3.17;;;;;;;6.64;100.00;103418.28;4959329;23;20242;-84
2022/01/14 09:22:58;;;;;;;8.23;2.33;;;;;;;6.60;100.00;103398.16;4957373;28;20966;-85
2022/01/14 09:25:24;;;;;;;11.90;2.30;;;;;;;6.42;100.00;103368.31;4958559;28;20332;-85
2022/01/14 09:27:52;;;;;;;9.30;2.67;;;;;;;6.63;100.00;103397.94;4945500;28;20466;-85
2022/01/14 09:30:19;;;;;;;22.87;4.17;;;;;;;6.62;100.00;103408.69;4951246;28;20461;-85
2022/01/14 09:32:45;;;;;;;12.70;3.07;;;;;;;6.60;100.00;103414.16;4961297;28;21006;-85
2022/01/14 09:35:13;;;;;;;13.67;3.10;;;;;;;6.59;100.00;103396.44;4941803;28;20508;-84
2022/01/14 09:37:44;;;;;;;18.73;2.77;;;;;;;6.77;100.00;103448.47;4958415;28;20183;-84
2022/01/14 09:40:10;;;;;;;13.80;3.30;;;;;;;6.82;100.00;103450.78;4961208;28;20461;-85
2022/01/14 09:42:36;;;;;;;14.13;3.53;;;;;;;6.65;100.00;103430.66;4958639;28;20529;-85
2022/01/14 09:45:03;;;;;;;13.17;3.07;;;;;;;6.70;100.00;103422.34;4958351;28;20990;-85
2022/01/14 09:47:28;;;;;;;12.33;2.90;;;;;;;5.90;100.00;103313.31;4947962;28;20178;-84
2022/01/14 09:49:54;;;;;;;11.37;3.37;;;;;;;6.50;100.00;103391.75;4945596;28;20841;-85
2022/01/14 09:52:19;;;;;;;11.93;2.10;;;;;;;6.95;100.00;103440.94;4945975;28;20205;-84
2022/01/14 09:54:46;;;;;;;15.23;3.10;;;;;;;5.55;100.00;103235.91;4962795;28;20187;-84
2022/01/14 09:57:15;;;;;;;14.47;2.93;;;;;;;6.84;100.00;103445.34;4947548;28;20793;-85
2022/01/14 09:59:40;;;;;;;7.63;2.20;;;;;;;6.91;100.00;103460.78;4959019;28;20701;-84
2022/01/14 10:02:06;;;;;;;15.33;2.73;;;;;;;6.90;100.00;103448.44;4941891;28;21068;-85
2022/01/14 10:04:32;;;;;;;7.70;2.50;;;;;;;7.03;100.00;103451.06;4959705;28;20190;-85
2022/01/14 10:07:00;;;;;;;14.63;3.50;;;;;;;6.05;100.00;103332.78;4945568;28;20187;-76
2022/01/14 10:09:33;;;;;;;13.80;2.47;;;;;;;6.79;100.00;103451.00;4957267;28;20466;-86
2022/01/14 10:12:15;;;;;;;10.07;2.43;;;;;;;6.87;100.00;103462.00;4959261;28;20528;-85
2022/01/14 10:14:51;;;;;;;13.27;2.90;;;;;;;6.83;100.00;103467.63;4958397;28;20452;-85
2022/01/14 10:17:16;;;;;;;10.60;2.53;;;;;;;6.36;100.00;103365.22;4942579;28;20504;-86
2022/01/14 10:19:44;;;;;;;9.67;2.47;;;;;;;6.82;100.00;103466.78;4956503;28;20957;-85
2022/01/14 10:22:21;;;;;;;12.53;2.50;;;;;;;6.93;100.00;103472.22;4955923;28;20206;-85
2022/01/14 10:25:01;;;;;;;7.20;2.17;;;;;;;6.21;100.00;103352.03;4957222;28;20449;-85
2022/01/14 10:27:40;;;;;;;16.97;2.60;;;;;;;6.46;100.00;103396.47;4955934;28;20530;-84
2022/01/14 10:30:18;;;;;;;12.50;2.33;;;;;;;6.46;100.00;103395.63;4961421;28;20453;-85
2022/01/14 10:32:52;;;;;;;11.37;2.60;;;;;;;6.99;100.00;103470.91;4944151;28;20466;-86
2022/01/14 10:35:20;;;;;;;13.73;2.47;;;;;;;7.11;100.00;103479.84;4959331;28;20499;-84
2022/01/14 10:37:46;;;;;;;6.07;2.47;;;;;;;6.20;100.00;103341.50;4960827;28;20445;-83
2022/01/14 10:40:16;;;;;;;23.80;3.67;;;;;;;7.05;100.00;103478.47;4937774;28;21078;-86
2022/01/14 10:42:42;;;;;;;9.70;2.90;;;;;;;6.44;100.00;103377.03;4954481;28;20481;-85
2022/01/14 10:45:21;;;;;;;12.77;3.07;;;;;;;7.22;100.00;103470.09;4959531;28;20445;-85
2022/01/14 10:48:01;;;;;;;9.07;2.47;;;;;;;7.21;100.00;103484.41;4951194;28;20507;-85
2022/01/14 10:50:27;;;;;;;11.13;2.50;;;;;;;7.11;100.00;103488.72;4947012;28;20463;-86
2022/01/14 10:52:52;;;;;;;15.37;2.93;;;;;;;6.66;100.00;103396.84;4951511;28;20448;-84
2022/01/14 10:55:34;;;;;;;14.47;3.10;;;;;;;6.47;100.00;103378.66;4949314;28;20190;-86
2022/01/14 10:58:03;;;;;;;11.93;2.37;;;;;;;6.40;100.00;103350.72;4948078;28;20187;-85
2022/01/14 11:00:36;;;;;;;10.97;2.47;;;;;;;6.46;100.00;103369.78;4957804;28;20466;-86
2022/01/14 11:03:02;;;;;;;15.40;3.10;;;;;;;6.58;100.00;103370.72;4961590;28;20485;-85
2022/01/14 11:05:28;;;;;;;9.33;2.80;;;;;;;6.84;100.00;103427.53;4956644;28;20442;-85
2022/01/14 11:07:54;;;;;;;14.20;2.83;;;;;;;6.60;100.00;103376.81;4948199;28;20190;-86
2022/01/14 11:10:33;;;;;;;10.50;2.63;;;;;;;6.66;100.00;103368.38;4945006;28;20461;-86
2022/01/14 11:13:01;;;;;;;11.77;3.00;;;;;;;7.11;100.00;103475.38;4941542;28;20900;-86
2022/01/14 11:15:28;;;;;;;14.83;2.77;;;;;;;7.07;100.00;103463.22;4944957;28;20464;-85
2022/01/14 11:17:57;;;;;;;12.97;3.80;;;;;;;6.28;100.00;103331.13;4963072;28;20471;-85
2022/01/14 11:20:30;;;;;;;18.40;3.57;;;;;;;7.26;100.00;103460.03;4950236;28;20991;-86
2022/01/14 11:23:14;;;;;;;13.83;3.13;;;;;;;7.34;100.00;103475.50;4946482;28;20966;-85
2022/01/14 11:26:01;;;;;;;8.80;2.63;;;;;;;6.87;100.00;103399.78;4952224;28;20461;-85
2022/01/14 11:28:30;;;;;;;13.90;2.63;;;;;;;7.33;100.00;103474.66;4955152;28;20472;-85
2022/01/14 11:30:56;;;;;;;12.37;2.97;;;;;;;7.39;100.00;103476.88;4947828;28;20497;-85
2022/01/14 11:33:38;;;;;;;13.27;2.97;;;;;;;6.93;100.00;103397.50;4961988;28;20920;-83
2022/01/14 11:36:06;;;;;;;9.80;2.00;;;;;;;7.40;100.00;103483.06;4948822;28;20525;-85
2022/01/14 11:38:36;;;;;;;15.43;2.63;;;;;;;7.37;100.00;103469.94;4945801;28;21047;-85
2022/01/14 11:41:02;;;;;;;13.00;2.87;;;;;;;6.88;100.00;103378.31;4946211;28;20939;-84
2022/01/14 11:43:48;;;;;;;8.43;2.80;;;;;;;7.37;100.00;103481.47;4946788;28;20588;-85
2022/01/14 11:46:34;;;;;;;15.37;3.97;;;;;;;7.30;100.00;103476.72;4963989;28;20462;-85
2022/01/14 11:49:00;;;;;;;10.53;2.40;;;;;;;7.29;100.00;103477.66;4946708;28;20954;-86